Time;durP1;ratioP1;P1;durP2;ratioP2;P2;SDS_P1;SDS_P2;PMS_P1;PMS_P2;Temp;Humidity;BMP_temperature;BMP_pressure;BME280_temperature;BME280_humidity;BME280_pressure;Samples;Min_cycle;Max_cycle;Signal;HPM_P1;HPM_P2
2020/12/16 00:03:55;;;;;;;24.42;17.85;;;;;;;8.71;85.60;101511.06;10134866;28;20046;-70
2020/12/16 00:08:51;;;;;;;24.98;18.10;;;;;;;8.67;85.93;101514.63;10143585;28;20054;-69
2020/12/16 00:13:47;;;;;;;26.50;18.48;;;;;;;8.64;86.11;101514.09;10121066;28;20101;-69
2020/12/16 00:18:43;;;;;;;25.27;18.90;;;;;;;8.76;85.43;101518.38;10141017;28;20078;-69
2020/12/16 00:23:39;;;;;;;28.67;18.58;;;;;;;8.83;85.13;101529.78;10117171;28;20081;-70
2020/12/16 00:28:35;;;;;;;22.58;16.42;;;;;;;8.80;85.41;101536.63;10139561;28;20057;-70
2020/12/16 00:33:31;;;;;;;23.13;17.67;;;;;;;8.81;85.10;101540.94;10136449;28;20062;-70
2020/12/16 00:38:28;;;;;;;25.63;17.77;;;;;;;8.86;84.97;101548.28;10138461;28;20125;-68
2020/12/16 00:43:24;;;;;;;25.92;18.00;;;;;;;8.87;84.64;101547.19;10136630;28;20058;-70
2020/12/16 00:48:20;;;;;;;27.88;18.73;;;;;;;8.86;84.23;101548.28;10139493;28;20066;-69
2020/12/16 00:53:16;;;;;;;27.10;19.10;;;;;;;8.87;84.79;101546.38;10112945;28;20167;-70
2020/12/16 00:58:12;;;;;;;29.65;20.52;;;;;;;8.63;85.19;101547.94;10137124;28;20077;-70
2020/12/16 01:03:09;;;;;;;33.63;21.17;;;;;;;8.78;85.72;101554.38;10124942;28;20058;-70
2020/12/16 01:08:05;;;;;;;27.63;19.02;;;;;;;8.80;85.46;101563.06;10134321;28;20101;-70
2020/12/16 01:13:02;;;;;;;29.58;19.65;;;;;;;8.88;85.48;101554.25;10135828;28;20054;-70
2020/12/16 01:17:59;;;;;;;33.22;20.83;;;;;;;8.92;85.50;101566.22;10143752;28;20113;-70
2020/12/16 01:22:55;;;;;;;30.98;20.05;;;;;;;8.97;85.06;101563.47;10136725;28;20190;-69
2020/12/16 01:28:00;;;;;;;33.92;22.33;;;;;;;8.79;85.21;101566.88;10133291;28;20102;-69
2020/12/16 01:32:57;;;;;;;35.20;23.60;;;;;;;8.83;84.88;101571.47;10140551;28;20426;-69
2020/12/16 01:37:54;;;;;;;34.92;20.90;;;;;;;8.80;84.02;101571.25;10136481;28;20172;-69
2020/12/16 01:42:50;;;;;;;29.58;19.60;;;;;;;8.78;83.88;101576.19;10140399;28;20085;-69
2020/12/16 01:47:47;;;;;;;33.63;20.77;;;;;;;8.81;83.91;101581.84;10125410;28;20054;-69
2020/12/16 01:52:44;;;;;;;31.75;20.50;;;;;;;8.74;82.90;101581.38;10142288;28;20522;-69
2020/12/16 01:57:45;;;;;;;32.17;19.98;;;;;;;8.80;83.18;101590.34;10123438;28;20059;-69
2020/12/16 02:02:51;;;;;;;30.75;19.50;;;;;;;8.80;83.55;101588.44;10128658;28;20083;-69
2020/12/16 02:07:53;;;;;;;31.55;19.38;;;;;;;8.65;83.92;101588.53;10136916;28;20080;-69
2020/12/16 02:12:49;;;;;;;32.17;18.95;;;;;;;8.83;83.32;101595.22;10134434;28;20109;-69
2020/12/16 02:17:48;;;;;;;26.38;16.55;;;;;;;8.80;82.01;101596.59;10140687;28;20055;-70
2020/12/16 02:22:49;;;;;;;32.92;18.63;;;;;;;8.80;81.94;101595.81;10132897;28;20050;-70
2020/12/16 02:27:46;;;;;;;30.30;19.67;;;;;;;8.83;82.24;101601.47;10137921;28;20097;-70
2020/12/16 02:32:42;;;;;;;32.25;17.52;;;;;;;8.78;83.71;101619.81;10134448;28;20047;-70
2020/12/16 02:37:38;;;;;;;32.67;18.63;;;;;;;8.81;83.08;101619.22;10133474;28;20502;-69
2020/12/16 02:42:34;;;;;;;29.90;17.73;;;;;;;8.85;82.92;101636.66;10128152;28;20062;-69
2020/12/16 02:47:31;;;;;;;30.25;16.83;;;;;;;8.89;82.68;101626.81;10132286;28;20677;-69
2020/12/16 02:52:27;;;;;;;33.40;18.55;;;;;;;8.84;83.36;101635.00;10123409;28;20050;-69
2020/12/16 02:57:23;;;;;;;35.58;19.23;;;;;;;8.83;84.14;101636.13;10132663;28;20058;-69
2020/12/16 03:02:19;;;;;;;25.13;16.70;;;;;;;8.87;84.08;101639.91;10135838;28;20666;-68
2020/12/16 03:07:18;;;;;;;31.27;17.77;;;;;;;8.88;84.35;101647.00;10130458;28;20054;-68
2020/12/16 03:12:14;;;;;;;28.58;17.52;;;;;;;8.87;84.49;101645.38;10139511;28;20403;-68
2020/12/16 03:17:11;;;;;;;29.95;17.35;;;;;;;8.88;83.34;101647.00;10145975;28;20054;-69
2020/12/16 03:22:07;;;;;;;35.78;18.27;;;;;;;8.81;84.33;101662.84;10139460;28;20053;-70
2020/12/16 03:27:03;;;;;;;30.90;16.75;;;;;;;8.85;84.00;101653.81;10140696;28;20054;-70
2020/12/16 03:32:01;;;;;;;30.83;18.42;;;;;;;8.83;84.63;101666.94;10142121;28;20495;-69
2020/12/16 03:36:57;;;;;;;28.88;18.35;;;;;;;8.84;84.75;101648.66;10131844;28;20104;-69
2020/12/16 03:41:53;;;;;;;33.30;17.42;;;;;;;8.81;84.07;101651.94;10135593;28;20461;-70
2020/12/16 03:46:52;;;;;;;32.20;18.65;;;;;;;8.87;84.33;101656.28;10135557;28;20065;-70
2020/12/16 03:51:53;;;;;;;29.63;18.02;;;;;;;8.85;84.11;101658.47;10140486;28;20773;-69
2020/12/16 03:57:05;;;;;;;32.42;18.67;;;;;;;8.78;84.00;101668.88;10128332;28;20137;-70
2020/12/16 04:02:01;;;;;;;30.00;18.88;;;;;;;8.82;84.09;101670.78;10135507;28;20043;-69
2020/12/16 04:06:58;;;;;;;31.55;17.50;;;;;;;8.80;84.62;101672.16;10135366;28;20105;-69
2020/12/16 04:11:54;;;;;;;34.92;18.85;;;;;;;8.81;84.73;101684.66;10133328;28;20053;-69
2020/12/16 04:16:55;;;;;;;37.05;21.63;;;;;;;8.81;84.50;101690.13;10115980;28;20081;-69
2020/12/16 04:21:56;;;;;;;34.70;18.98;;;;;;;8.82;84.77;101695.31;10139803;28;20069;-70
2020/12/16 04:26:54;;;;;;;29.08;19.02;;;;;;;8.85;84.54;101697.47;10112851;28;20125;-70
2020/12/16 04:31:51;;;;;;;31.35;19.17;;;;;;;8.86;84.54;101692.81;10147242;28;20077;-68
2020/12/16 04:36:49;;;;;;;32.00;18.27;;;;;;;8.85;84.99;101688.47;10132280;28;20518;-68
2020/12/16 04:41:51;;;;;;;27.40;18.10;;;;;;;8.86;84.83;101681.91;10145763;28;20053;-68
2020/12/16 04:46:48;;;;;;;28.75;17.60;;;;;;;8.85;84.33;101691.19;10134322;28;20145;-68
2020/12/16 04:51:45;;;;;;;31.23;19.05;;;;;;;8.83;84.56;101693.41;10136282;28;20058;-68
2020/12/16 04:56:43;;;;;;;36.08;20.63;;;;;;;8.79;84.84;101704.03;10130660;28;20171;-69
2020/12/16 05:01:41;;;;;;;39.35;22.60;;;;;;;8.83;85.04;101709.75;10132670;28;20133;-68
2020/12/16 05:06:43;;;;;;;36.53;19.60;;;;;;;8.81;84.92;101720.13;10132318;28;20552;-66
2020/12/16 05:11:47;;;;;;;40.17;23.27;;;;;;;8.78;84.72;101723.44;10129467;28;20042;-63
2020/12/16 05:16:50;;;;;;;34.50;20.38;;;;;;;8.77;84.95;101727.22;10133367;28;20122;-66
2020/12/16 05:21:46;;;;;;;41.15;24.05;;;;;;;8.79;84.84;101725.03;10133075;28;20503;-66
2020/12/16 05:26:50;;;;;;;35.17;22.50;;;;;;;8.82;84.15;101727.22;10131758;28;20050;-68
2020/12/16 05:31:46;;;;;;;38.65;23.42;;;;;;;8.81;84.13;101722.84;10135875;28;20043;-65
2020/12/16 05:36:42;;;;;;;37.30;21.85;;;;;;;8.81;84.27;101734.56;10137544;28;20073;-65
2020/12/16 05:41:39;;;;;;;42.92;24.25;;;;;;;8.81;84.48;101739.22;10141320;28;20065;-66
2020/12/16 05:46:35;;;;;;;42.08;24.40;;;;;;;8.82;84.36;101746.31;10133588;28;20049;-66
2020/12/16 05:51:31;;;;;;;42.03;26.85;;;;;;;8.82;84.49;101735.41;10122153;28;20050;-66
2020/12/16 05:56:27;;;;;;;47.75;29.02;;;;;;;8.81;84.15;101737.28;10123620;28;20050;-66
2020/12/16 06:01:31;;;;;;;50.90;30.77;;;;;;;8.77;85.12;101743.59;10124571;28;20059;-67
2020/12/16 06:06:28;;;;;;;49.05;27.83;;;;;;;8.73;85.12;101753.44;10121690;28;20573;-66
2020/12/16 06:11:36;;;;;;;51.08;29.50;;;;;;;8.74;85.54;101755.06;10120093;28;20046;-66
2020/12/16 06:16:46;;;;;;;50.35;30.50;;;;;;;8.72;85.90;101762.72;10140349;28;20057;-67
2020/12/16 06:21:47;;;;;;;49.50;27.23;;;;;;;8.74;85.09;101765.97;10132763;28;20051;-67
2020/12/16 06:26:56;;;;;;;48.55;29.63;;;;;;;8.81;85.07;101761.03;10127170;28;20054;-67
2020/12/16 06:31:52;;;;;;;45.85;27.70;;;;;;;8.79;85.19;101769.47;10129943;28;20510;-67
2020/12/16 06:36:48;;;;;;;50.60;30.15;;;;;;;8.77;85.25;101773.59;10120761;28;20055;-67
2020/12/16 06:41:55;;;;;;;58.13;32.60;;;;;;;8.74;85.72;101765.97;10115413;28;20053;-67
2020/12/16 06:46:53;;;;;;;56.60;31.95;;;;;;;8.68;86.06;101775.25;10123343;28;20086;-67
2020/12/16 06:51:58;;;;;;;59.95;31.95;;;;;;;8.66;85.68;101772.00;10121165;28;20121;-66
2020/12/16 06:57:18;;;;;;;56.25;31.70;;;;;;;8.69;86.21;101779.63;10129007;28;20169;-67
2020/12/16 07:02:22;;;;;;;60.42;33.13;;;;;;;8.64;85.40;101786.72;10121514;28;20046;-67
2020/12/16 07:07:57;;;;;;;58.88;32.65;;;;;;;8.62;85.89;101790.84;10121649;28;20046;-67
2020/12/16 07:13:18;;;;;;;56.92;31.70;;;;;;;8.54;86.25;101789.50;9997854;29;20508;-67
2020/12/16 07:18:26;;;;;;;56.63;30.20;;;;;;;8.61;86.30;101800.94;10100440;28;20097;-66
2020/12/16 07:23:27;;;;;;;60.58;31.05;;;;;;;8.67;86.04;101792.72;10124919;28;20146;-67
2020/12/16 07:28:23;;;;;;;60.60;33.75;;;;;;;8.64;85.94;101794.91;10131127;28;20981;-67
2020/12/16 07:33:20;;;;;;;59.05;33.83;;;;;;;8.62;86.26;101797.09;10137743;28;20215;-67
2020/12/16 07:38:16;;;;;;;61.67;32.03;;;;;;;8.56;86.00;101798.22;10130915;28;20128;-67
2020/12/16 07:43:12;;;;;;;53.53;30.75;;;;;;;8.55;85.84;101804.75;10133368;28;20069;-66
2020/12/16 07:48:13;;;;;;;52.25;26.58;;;;;;;8.48;85.86;101800.69;10135772;28;20046;-66
2020/12/16 07:53:09;;;;;;;53.45;29.52;;;;;;;8.46;86.47;101813.78;10134953;28;20050;-67
2020/12/16 07:58:07;;;;;;;53.83;27.05;;;;;;;8.52;85.70;101813.50;10135396;28;20050;-67
2020/12/16 08:03:04;;;;;;;47.15;28.08;;;;;;;8.53;84.82;101814.31;10138321;28;20105;-67
2020/12/16 08:08:01;;;;;;;46.40;26.42;;;;;;;8.49;84.35;101819.50;10141250;28;20672;-67
2020/12/16 08:12:58;;;;;;;42.83;25.70;;;;;;;8.40;84.78;101821.16;10139653;28;20113;-67
2020/12/16 08:17:55;;;;;;;47.40;25.70;;;;;;;8.26;84.81;101826.31;10140150;28;20046;-67
2020/12/16 08:22:57;;;;;;;47.67;26.00;;;;;;;8.20;85.29;101828.25;10142358;28;20065;-67
2020/12/16 08:27:56;;;;;;;44.83;25.42;;;;;;;8.20;85.30;101844.59;10142207;28;20050;-66
2020/12/16 08:32:56;;;;;;;43.33;24.60;;;;;;;8.08;85.18;101844.06;10136312;28;20469;-68
2020/12/16 08:37:55;;;;;;;44.75;25.15;;;;;;;8.13;85.19;101849.50;10137791;28;20605;-66
2020/12/16 08:42:51;;;;;;;42.10;23.55;;;;;;;7.88;85.53;101852.22;10143318;28;20078;-66
2020/12/16 08:47:47;;;;;;;41.95;22.17;;;;;;;7.82;85.29;101864.19;10141614;28;20058;-66
2020/12/16 08:52:48;;;;;;;45.88;23.92;;;;;;;7.77;85.36;101863.13;10143619;28;20047;-66
2020/12/16 08:57:51;;;;;;;50.42;23.85;;;;;;;7.62;85.67;101865.00;10130169;28;20418;-66
2020/12/16 09:03:00;;;;;;;47.17;24.73;;;;;;;7.57;85.51;101868.53;10125555;28;20047;-66
2020/12/16 09:08:14;;;;;;;52.08;24.42;;;;;;;7.64;85.20;101874.53;10132732;28;20514;-66
2020/12/16 09:13:18;;;;;;;47.80;24.63;;;;;;;7.61;85.53;101879.69;10136128;28;20043;-67
2020/12/16 09:18:14;;;;;;;45.40;24.60;;;;;;;7.62;85.37;101893.03;10132507;28;20053;-66
2020/12/16 09:23:10;;;;;;;47.38;24.80;;;;;;;7.64;85.62;101890.88;10138547;28;20050;-67
2020/12/16 09:28:06;;;;;;;50.28;25.60;;;;;;;7.54;85.42;101896.28;10137535;28;20426;-66
2020/12/16 09:33:14;;;;;;;57.42;26.83;;;;;;;7.67;85.32;101906.66;10137834;28;20054;-66
2020/12/16 09:38:18;;;;;;;53.70;25.02;;;;;;;7.65;85.12;101897.94;10134929;28;20485;-66
2020/12/16 09:43:14;;;;;;;48.45;24.92;;;;;;;7.69;84.88;101899.03;10133738;28;20074;-66
2020/12/16 09:48:11;;;;;;;50.83;24.25;;;;;;;7.77;84.88;101906.69;10132269;28;20043;-67
2020/12/16 09:53:10;;;;;;;53.70;22.63;;;;;;;7.77;84.73;101897.69;10125579;28;20050;-66
2020/12/16 09:58:08;;;;;;;46.20;23.33;;;;;;;7.86;84.03;101897.97;10129175;28;20116;-66
2020/12/16 10:03:13;;;;;;;47.42;24.70;;;;;;;7.90;83.89;101894.44;10134185;28;20108;-67
2020/12/16 10:08:12;;;;;;;49.13;23.85;;;;;;;7.84;83.04;101891.97;10140752;28;20054;-66
2020/12/16 10:13:08;;;;;;;51.03;22.75;;;;;;;7.88;83.62;101884.91;10135818;28;20137;-66
2020/12/16 10:18:04;;;;;;;46.50;21.30;;;;;;;7.83;83.20;101882.19;10132849;28;20518;-66
2020/12/16 10:23:02;;;;;;;42.97;20.88;;;;;;;7.88;83.02;101876.75;10141585;28;20046;-66
2020/12/16 10:27:59;;;;;;;49.20;24.38;;;;;;;7.90;83.05;101893.63;10119895;28;20562;-66
2020/12/16 10:32:56;;;;;;;44.35;21.13;;;;;;;7.78;82.75;101883.00;10138240;28;20046;-66
2020/12/16 10:37:53;;;;;;;45.10;20.00;;;;;;;7.67;82.69;101890.31;10133134;28;20050;-68
2020/12/16 10:42:49;;;;;;;47.65;23.90;;;;;;;7.84;83.17;101889.25;10134918;28;20058;-66
2020/12/16 10:47:45;;;;;;;47.17;22.65;;;;;;;7.88;82.95;101880.28;10135908;28;20058;-67
2020/12/16 10:52:41;;;;;;;49.03;23.98;;;;;;;7.80;83.03;101895.25;10133910;28;20140;-66
2020/12/16 10:57:38;;;;;;;47.65;23.52;;;;;;;7.88;83.52;101893.88;10135453;28;20051;-66
2020/12/16 11:02:34;;;;;;;49.17;24.65;;;;;;;7.92;83.20;101891.44;10136923;28;20059;-68
2020/12/16 11:07:30;;;;;;;52.45;23.98;;;;;;;7.94;83.11;101881.13;10128826;28;20055;-67
2020/12/16 11:12:27;;;;;;;54.15;24.63;;;;;;;7.97;83.89;101880.56;10118441;28;20077;-68
2020/12/16 11:17:23;;;;;;;52.28;24.98;;;;;;;7.89;83.91;101876.47;10128821;28;20469;-66
2020/12/16 11:22:20;;;;;;;58.00;25.50;;;;;;;7.89;83.78;101881.91;10126254;28;20072;-66
2020/12/16 11:27:16;;;;;;;57.03;26.33;;;;;;;7.92;83.93;101880.56;10124812;28;20117;-65
2020/12/16 11:32:12;;;;;;;63.47;27.33;;;;;;;7.72;84.90;101887.59;10138060;28;20101;-66
2020/12/16 11:37:08;;;;;;;73.03;28.95;;;;;;;7.62;84.79;101887.59;10133339;28;20048;-66
2020/12/16 11:42:05;;;;;;;79.15;29.30;;;;;;;7.59;84.63;101893.59;10140234;28;20042;-67
2020/12/16 11:47:04;;;;;;;63.60;27.20;;;;;;;7.60;84.98;101878.88;10133994;28;20057;-67
2020/12/16 11:52:00;;;;;;;73.95;28.52;;;;;;;7.47;86.78;101880.22;10124629;28;20098;-69
2020/12/16 11:56:56;;;;;;;65.13;27.77;;;;;;;7.76;85.28;101869.66;10128946;28;20770;-66
2020/12/16 12:01:56;;;;;;;64.05;27.08;;;;;;;7.89;85.24;101870.19;10131865;28;20050;-68
2020/12/16 12:06:52;;;;;;;62.67;27.33;;;;;;;7.90;84.90;101871.84;10135376;28;20054;-66
2020/12/16 12:11:50;;;;;;;63.55;26.13;;;;;;;7.92;85.12;101869.66;10130953;28;20051;-66
2020/12/16 12:16:48;;;;;;;59.05;27.50;;;;;;;7.90;85.54;101872.66;10120291;28;20495;-66
2020/12/16 12:21:44;;;;;;;70.50;28.60;;;;;;;7.76;85.98;101866.91;10130638;28;20580;-66
2020/12/16 12:26:41;;;;;;;72.78;30.35;;;;;;;7.85;86.13;101869.13;10122360;28;20137;-66
2020/12/16 12:31:37;;;;;;;70.18;28.75;;;;;;;7.78;86.33;101864.75;10129669;28;20133;-65
2020/12/16 12:36:33;;;;;;;71.10;30.38;;;;;;;7.83;86.22;101860.41;10143666;28;20120;-65
2020/12/16 12:41:29;;;;;;;79.10;32.10;;;;;;;7.80;86.69;101862.56;10141864;28;20128;-66
2020/12/16 12:46:25;;;;;;;79.70;33.45;;;;;;;7.87;86.47;101865.03;10142567;28;20470;-66
2020/12/16 12:51:23;;;;;;;72.15;33.50;;;;;;;7.95;86.06;101858.22;10143136;28;20054;-66
2020/12/16 12:56:24;;;;;;;70.63;32.25;;;;;;;7.99;86.05;101862.03;10122269;28;20054;-66
2020/12/16 13:01:23;;;;;;;62.47;30.23;;;;;;;8.05;86.26;101860.94;10140196;28;20050;-66
2020/12/16 13:06:19;;;;;;;75.05;30.25;;;;;;;7.88;85.98;101860.41;10120590;28;20078;-66
2020/12/16 13:11:15;;;;;;;58.72;28.27;;;;;;;8.09;86.13;101861.22;10124318;28;20074;-66
2020/12/16 13:16:11;;;;;;;67.80;25.75;;;;;;;7.85;86.51;101853.59;10132993;28;20062;-64
2020/12/16 13:21:07;;;;;;;52.13;23.38;;;;;;;8.00;86.05;101850.03;10143030;28;20124;-66
2020/12/16 13:26:05;;;;;;;57.90;24.55;;;;;;;8.03;85.36;101849.53;10144633;28;20054;-65
2020/12/16 13:31:02;;;;;;;53.40;23.98;;;;;;;7.86;85.66;101849.75;10141858;28;20108;-65
2020/12/16 13:36:00;;;;;;;46.88;23.67;;;;;;;7.85;85.52;101837.25;10145576;28;20054;-65
2020/12/16 13:40:57;;;;;;;49.88;22.90;;;;;;;7.89;85.19;101827.47;10140476;28;20077;-65
2020/12/16 13:45:55;;;;;;;48.00;24.67;;;;;;;7.92;84.79;101831.53;10139606;28;20058;-66
2020/12/16 13:50:51;;;;;;;54.60;23.08;;;;;;;7.68;85.48;101826.63;10141001;28;20046;-67
2020/12/16 13:55:47;;;;;;;46.55;22.63;;;;;;;7.82;85.51;101826.06;10120301;28;20050;-66
2020/12/16 14:00:43;;;;;;;47.92;23.13;;;;;;;7.80;85.19;101826.38;10140186;28;20530;-67
2020/12/16 14:05:39;;;;;;;56.40;24.20;;;;;;;7.68;85.29;101821.19;10124704;28;20675;-66
2020/12/16 14:10:35;;;;;;;42.70;22.17;;;;;;;7.82;84.56;101815.19;10121798;28;20418;-66
2020/12/16 14:15:33;;;;;;;41.72;21.05;;;;;;;7.78;84.77;101814.94;10126284;28;20046;-66
2020/12/16 14:20:29;;;;;;;43.95;21.42;;;;;;;7.66;84.92;101817.06;10107016;28;20069;-67
2020/12/16 14:25:25;;;;;;;37.60;19.30;;;;;;;7.67;84.78;101819.53;10137754;28;20047;-67
2020/12/16 14:30:21;;;;;;;38.30;19.50;;;;;;;7.68;84.56;101807.59;10118089;28;20090;-67
2020/12/16 14:35:18;;;;;;;44.33;19.90;;;;;;;7.56;85.30;101815.16;10114433;28;20052;-67
2020/12/16 14:40:14;;;;;;;49.65;20.50;;;;;;;7.56;85.91;101815.16;10098288;28;20050;-66
2020/12/16 14:45:10;;;;;;;50.17;19.48;;;;;;;7.59;86.15;101809.22;10122340;28;20543;-66
2020/12/16 14:50:07;;;;;;;51.25;20.67;;;;;;;7.68;86.43;101804.84;10139221;28;20058;-67
2020/12/16 14:55:03;;;;;;;55.05;21.73;;;;;;;7.62;86.50;101805.94;10135136;28;20114;-67
2020/12/16 15:00:01;;;;;;;52.45;21.52;;;;;;;7.74;87.20;101814.66;10131112;28;20050;-67
2020/12/16 15:04:57;;;;;;;64.18;25.92;;;;;;;7.74;87.29;101814.66;10125678;28;20495;-67
2020/12/16 15:09:54;;;;;;;64.63;25.35;;;;;;;7.73;87.99;101818.47;10117379;28;20089;-66
2020/12/16 15:14:50;;;;;;;72.47;27.73;;;;;;;7.79;87.94;101811.91;10127398;28;20073;-68
2020/12/16 15:19:46;;;;;;;68.78;27.52;;;;;;;7.84;87.88;101811.09;10127300;28;20054;-67
2020/12/16 15:24:42;;;;;;;63.88;28.13;;;;;;;7.68;88.54;101815.75;10135860;28;20101;-67
2020/12/16 15:29:40;;;;;;;62.67;29.30;;;;;;;7.89;87.87;101810.28;10135785;28;20046;-67
2020/12/16 15:34:36;;;;;;;63.58;29.70;;;;;;;7.93;87.31;101816.81;10135162;28;20110;-67
2020/12/16 15:39:32;;;;;;;59.08;28.77;;;;;;;7.90;87.76;101812.75;10126186;28;20063;-67
2020/12/16 15:44:28;;;;;;;56.10;26.38;;;;;;;7.94;87.73;101811.13;10139820;28;20050;-68
2020/12/16 15:49:25;;;;;;;53.47;28.40;;;;;;;8.03;86.94;101805.94;10136218;28;20852;-67
2020/12/16 15:54:21;;;;;;;58.10;27.20;;;;;;;8.03;86.53;101800.50;10124110;28;20059;-68
2020/12/16 15:59:17;;;;;;;49.25;26.30;;;;;;;8.08;86.23;101803.19;10129320;28;20054;-68
2020/12/16 16:04:13;;;;;;;50.03;26.73;;;;;;;8.06;86.19;101805.38;10131568;28;20441;-68
2020/12/16 16:09:09;;;;;;;48.13;26.65;;;;;;;8.12;86.41;101807.03;10121987;28;20061;-66
2020/12/16 16:14:05;;;;;;;51.17;27.23;;;;;;;8.04;86.46;101813.00;10125648;28;20062;-66
2020/12/16 16:19:02;;;;;;;51.35;27.33;;;;;;;8.10;86.28;101806.47;10127185;28;20054;-66
2020/12/16 16:24:00;;;;;;;48.10;28.55;;;;;;;8.06;85.62;101805.38;10135818;28;20083;-66
2020/12/16 16:28:56;;;;;;;47.72;27.15;;;;;;;7.99;86.47;101800.22;10135046;28;20466;-65
2020/12/16 16:33:53;;;;;;;53.33;29.15;;;;;;;8.02;86.11;101804.28;10132458;28;20046;-66
2020/12/16 16:38:49;;;;;;;53.88;28.88;;;;;;;8.01;85.91;101810.84;10127372;28;20049;-66
2020/12/16 16:43:46;;;;;;;50.22;28.13;;;;;;;7.99;86.08;101810.28;10124920;28;20055;-69
2020/12/16 16:48:43;;;;;;;49.95;28.27;;;;;;;8.07;85.62;101817.91;10128992;28;20086;-67
2020/12/16 16:53:39;;;;;;;51.30;28.60;;;;;;;8.04;86.24;101826.63;10118774;28;20173;-67
2020/12/16 16:58:35;;;;;;;53.83;27.80;;;;;;;8.00;86.02;101830.97;10112876;28;20073;-67
2020/12/16 17:03:31;;;;;;;50.17;26.60;;;;;;;7.96;86.18;101821.72;10121447;28;20501;-67
2020/12/16 17:08:27;;;;;;;53.83;26.17;;;;;;;7.82;86.42;101817.91;10112467;28;20450;-68
2020/12/16 17:13:24;;;;;;;51.80;27.60;;;;;;;7.94;86.00;101807.59;10110234;28;20051;-66
2020/12/16 17:18:20;;;;;;;50.58;26.00;;;;;;;7.95;85.97;101809.19;10126370;28;20055;-67
2020/12/16 17:23:16;;;;;;;50.42;26.05;;;;;;;8.02;85.73;101810.53;10134336;28;20046;-67
2020/12/16 17:28:12;;;;;;;48.92;26.08;;;;;;;7.96;85.95;101816.25;10127008;28;20057;-66
2020/12/16 17:33:08;;;;;;;53.25;27.38;;;;;;;7.95;85.88;101809.19;10119581;28;20050;-67
2020/12/16 17:38:05;;;;;;;52.70;28.25;;;;;;;7.97;86.13;101826.09;10130387;28;20062;-67
2020/12/16 17:43:01;;;;;;;53.38;28.42;;;;;;;8.00;85.90;101826.34;10118149;28;20054;-67
2020/12/16 17:47:57;;;;;;;51.30;27.30;;;;;;;8.00;86.36;101817.38;10135424;28;20053;-64
2020/12/16 17:52:53;;;;;;;57.78;30.02;;;;;;;8.02;86.43;101815.19;10130417;28;21758;-65
2020/12/16 17:57:49;;;;;;;53.15;28.95;;;;;;;8.04;86.08;101807.56;10124918;28;20077;-64
2020/12/16 18:02:45;;;;;;;51.00;29.05;;;;;;;8.00;86.82;101806.47;10130510;28;20057;-64
2020/12/16 18:07:41;;;;;;;51.80;28.40;;;;;;;8.11;86.45;101796.38;10123724;28;20515;-66
2020/12/16 18:12:39;;;;;;;55.90;29.98;;;;;;;8.12;85.89;101803.47;10132597;28;20047;-67
2020/12/16 18:17:35;;;;;;;55.80;30.75;;;;;;;8.15;86.20;101806.47;10136652;28;20042;-66
2020/12/16 18:22:31;;;;;;;59.05;31.42;;;;;;;8.13;86.25;101795.03;10127696;28;20054;-66
2020/12/16 18:27:28;;;;;;;54.45;29.83;;;;;;;8.22;86.67;101798.81;10131348;28;20050;-67
2020/12/16 18:32:24;;;;;;;53.35;31.15;;;;;;;8.22;86.34;101787.91;10130974;28;20062;-67
2020/12/16 18:37:21;;;;;;;54.53;30.80;;;;;;;8.23;86.46;101775.91;10129867;28;20057;-67
2020/12/16 18:42:18;;;;;;;51.40;30.10;;;;;;;8.28;85.99;101774.28;10128894;28;20046;-68
2020/12/16 18:47:14;;;;;;;54.70;30.35;;;;;;;8.31;85.85;101773.72;10123292;28;20514;-67
2020/12/16 18:52:11;;;;;;;52.47;30.17;;;;;;;8.35;85.70;101775.63;10129728;28;20050;-66
2020/12/16 18:57:08;;;;;;;54.20;30.98;;;;;;;8.35;86.07;101780.25;10107940;28;20046;-67
2020/12/16 19:02:05;;;;;;;48.88;30.25;;;;;;;8.36;86.04;101771.81;10141890;28;20046;-67
2020/12/16 19:07:06;;;;;;;54.92;31.63;;;;;;;8.40;85.03;101762.03;10113547;28;20608;-64
2020/12/16 19:12:04;;;;;;;54.92;30.90;;;;;;;8.31;85.58;101744.59;10138508;28;20085;-66
2020/12/16 19:17:01;;;;;;;56.53;34.03;;;;;;;8.33;85.85;101725.22;10110410;28;20350;-66
2020/12/16 19:21:57;;;;;;;56.63;33.63;;;;;;;8.22;86.68;101722.53;10118364;28;20221;-65
2020/12/16 19:26:55;;;;;;;53.63;30.77;;;;;;;8.26;85.72;101732.88;10125412;28;20101;-66
2020/12/16 19:31:52;;;;;;;51.50;31.00;;;;;;;8.18;86.23;101726.91;10119907;28;20054;-65
2020/12/16 19:36:51;;;;;;;53.50;31.95;;;;;;;8.20;86.34;101713.00;10124415;28;20065;-66
2020/12/16 19:41:49;;;;;;;53.00;32.15;;;;;;;8.17;86.02;101699.94;10138937;28;20117;-66
2020/12/16 19:46:51;;;;;;;55.75;32.58;;;;;;;8.16;85.85;101706.47;10130407;28;20058;-66
2020/12/16 19:51:48;;;;;;;53.63;30.50;;;;;;;8.11;86.40;101712.75;10136515;28;20073;-68
2020/12/16 19:56:47;;;;;;;58.45;34.97;;;;;;;8.10;86.27;101702.97;10147294;28;20514;-66
2020/12/16 20:01:48;;;;;;;55.72;32.97;;;;;;;8.12;86.18;101706.22;10150924;28;20097;-66
2020/12/16 20:06:49;;;;;;;53.65;32.05;;;;;;;8.14;85.76;101709.47;10143941;28;20142;-66
2020/12/16 20:11:48;;;;;;;54.10;32.13;;;;;;;8.11;86.00;101723.66;10135392;28;20054;-66
2020/12/16 20:17:03;;;;;;;54.40;32.10;;;;;;;8.15;85.75;101726.66;10134986;28;20058;-67
2020/12/16 20:22:14;;;;;;;49.35;31.75;;;;;;;8.11;85.50;101729.09;10134098;28;20112;-65
2020/12/16 20:27:10;;;;;;;52.33;32.22;;;;;;;8.10;85.93;101723.91;10139592;28;20057;-65
2020/12/16 20:32:08;;;;;;;50.38;31.45;;;;;;;8.06;86.06;101718.22;10143653;28;20053;-67
2020/12/16 20:37:09;;;;;;;56.10;33.13;;;;;;;8.05;86.00;101715.75;10112798;28;20057;-66
2020/12/16 20:42:05;;;;;;;54.63;31.42;;;;;;;8.05;85.68;101700.22;10127293;28;20118;-65
2020/12/16 20:47:01;;;;;;;55.80;32.47;;;;;;;8.02;86.25;101695.34;10133872;28;20063;-64
2020/12/16 20:51:57;;;;;;;53.20;32.38;;;;;;;8.11;85.82;101693.69;10143552;28;20050;-65
2020/12/16 20:56:55;;;;;;;52.72;32.83;;;;;;;8.12;85.32;101689.88;10134330;28;20062;-65
2020/12/16 21:01:56;;;;;;;53.47;31.63;;;;;;;8.17;85.16;101687.13;10142758;28;20046;-66
2020/12/16 21:06:53;;;;;;;55.03;33.00;;;;;;;8.18;85.53;101682.50;10140948;28;20054;-65
2020/12/16 21:11:50;;;;;;;48.28;30.48;;;;;;;8.19;85.15;101686.84;10119934;28;20047;-64
2020/12/16 21:16:50;;;;;;;49.28;30.55;;;;;;;8.22;85.47;101680.84;10131146;28;20061;-66
2020/12/16 21:21:56;;;;;;;47.15;30.13;;;;;;;8.25;85.35;101676.75;10133678;28;20656;-66
2020/12/16 21:26:52;;;;;;;45.20;28.70;;;;;;;8.25;85.23;101676.75;10124244;28;20057;-67
2020/12/16 21:31:49;;;;;;;49.92;32.35;;;;;;;8.21;85.56;101669.16;10137642;28;20078;-68
2020/12/16 21:36:45;;;;;;;51.80;31.98;;;;;;;8.19;85.48;101668.59;10121907;28;20133;-67
2020/12/16 21:41:41;;;;;;;49.50;30.50;;;;;;;8.25;85.10;101661.22;10124669;28;20054;-66
2020/12/16 21:46:38;;;;;;;50.55;29.88;;;;;;;8.04;85.68;101659.69;10098390;28;20093;-65
2020/12/16 21:51:34;;;;;;;51.58;30.67;;;;;;;8.18;85.77;101666.97;10125355;28;20124;-66
2020/12/16 21:56:31;;;;;;;51.63;31.42;;;;;;;8.15;85.66;101667.53;10120541;28;20470;-67
2020/12/16 22:01:27;;;;;;;53.30;31.80;;;;;;;8.18;85.47;101661.50;10143491;28;20426;-66
2020/12/16 22:06:23;;;;;;;51.00;30.30;;;;;;;8.12;85.58;101653.63;10129797;28;20531;-67
2020/12/16 22:11:19;;;;;;;54.13;31.70;;;;;;;8.08;85.51;101656.13;10128735;28;20093;-67
2020/12/16 22:16:16;;;;;;;55.72;31.20;;;;;;;8.01;85.73;101650.16;10106793;28;20061;-68
2020/12/16 22:21:12;;;;;;;55.75;32.28;;;;;;;7.99;86.35;101646.88;10112050;28;20050;-67
2020/12/16 22:26:09;;;;;;;58.22;33.20;;;;;;;8.00;86.05;101643.06;10123199;28;20413;-70
2020/12/16 22:31:05;;;;;;;60.53;34.78;;;;;;;7.88;86.48;101635.19;10133418;28;20065;-67
2020/12/16 22:36:06;;;;;;;59.67;34.25;;;;;;;7.96;86.71;101631.09;10135141;28;20595;-68